createdAt,value
2023-07-10T00:02:06.461Z,17.08
2023-07-10T00:05:15.620Z,17.26
2023-07-10T00:08:21.510Z,17.16
2023-07-10T00:11:29.156Z,17.13
2023-07-10T00:14:35.291Z,16.97
2023-07-10T00:17:39.764Z,17.19
2023-07-10T00:20:46.329Z,17.11
2023-07-10T00:23:52.404Z,17.08
2023-07-10T00:26:56.951Z,17.04
2023-07-10T00:30:01.476Z,16.93
2023-07-10T00:33:09.627Z,16.95
2023-07-10T00:36:28.393Z,16.82
2023-07-10T00:39:38.057Z,16.76
2023-07-10T00:42:42.524Z,16.88
2023-07-10T00:45:47.012Z,16.70
2023-07-10T00:48:55.219Z,16.72
2023-07-10T00:52:04.500Z,16.74
2023-07-10T00:55:18.335Z,16.77
2023-07-10T00:58:30.467Z,16.71
2023-07-10T01:01:35.723Z,16.66
2023-07-10T01:04:42.034Z,16.66
2023-07-10T01:07:49.474Z,16.74
2023-07-10T01:10:55.416Z,16.76
2023-07-10T01:14:01.003Z,16.81
2023-07-10T01:17:07.190Z,16.74
2023-07-10T01:20:37.639Z,16.74
2023-07-10T01:23:43.530Z,16.68
2023-07-10T01:26:48.454Z,16.68
2023-07-10T01:30:02.189Z,16.62
2023-07-10T01:33:08.337Z,16.67
2023-07-10T01:36:15.049Z,16.66
2023-07-10T01:39:38.517Z,16.73
2023-07-10T01:42:43.093Z,16.71
2023-07-10T01:45:50.004Z,16.69
2023-07-10T01:48:57.433Z,16.72
2023-07-10T01:52:04.373Z,16.60
2023-07-10T01:55:12.005Z,16.47
2023-07-10T01:58:16.717Z,16.47
2023-07-10T02:01:21.570Z,16.53
2023-07-10T02:04:26.982Z,16.50
2023-07-10T02:07:31.577Z,16.47
2023-07-10T02:10:44.566Z,16.47
2023-07-10T02:13:50.522Z,16.47
2023-07-10T02:16:55.422Z,16.47
2023-07-10T02:20:00.093Z,16.44
2023-07-10T02:23:04.644Z,16.45
2023-07-10T02:26:11.011Z,16.47
2023-07-10T02:29:15.693Z,16.44
2023-07-10T02:32:20.872Z,16.38
2023-07-10T02:35:25.430Z,16.35
2023-07-10T02:38:29.951Z,16.34
2023-07-10T02:41:35.932Z,16.39
2023-07-10T02:44:40.510Z,16.40
2023-07-10T02:47:45.023Z,16.39
2023-07-10T02:50:49.595Z,16.40
2023-07-10T02:53:54.578Z,16.36
2023-07-10T02:57:00.524Z,16.41
2023-07-10T03:00:06.043Z,16.43
2023-07-10T03:03:10.630Z,16.45
2023-07-10T03:06:15.794Z,16.46
2023-07-10T03:09:21.339Z,16.39
2023-07-10T03:12:27.790Z,16.44
2023-07-10T03:15:32.342Z,16.51
2023-07-10T03:18:36.828Z,16.50
2023-07-10T03:21:41.382Z,16.39
2023-07-10T03:24:46.113Z,16.47
2023-07-10T03:27:53.812Z,16.49
2023-07-10T03:30:58.453Z,16.41
2023-07-10T03:34:03.072Z,16.38
2023-07-10T03:37:08.328Z,16.40
2023-07-10T03:40:13.597Z,16.44
2023-07-10T03:43:19.483Z,16.56
2023-07-10T03:46:24.370Z,16.57
2023-07-10T03:49:29.009Z,16.62
2023-07-10T03:52:33.476Z,16.60
2023-07-10T03:55:37.997Z,16.67
2023-07-10T03:58:45.096Z,16.70
2023-07-10T04:01:49.646Z,16.75
2023-07-10T04:04:54.129Z,16.80
2023-07-10T04:07:58.573Z,16.84
2023-07-10T04:11:04.670Z,16.82
2023-07-10T04:14:11.441Z,16.81
2023-07-10T04:17:16.445Z,16.91
2023-07-10T04:20:21.273Z,16.94
2023-07-10T04:23:25.821Z,16.99
2023-07-10T04:26:32.588Z,17.01
2023-07-10T04:29:38.621Z,17.03
2023-07-10T04:32:43.186Z,17.06
2023-07-10T04:35:55.145Z,17.10
2023-07-10T04:38:59.946Z,17.15
2023-07-10T04:42:04.551Z,17.22
2023-07-10T04:45:11.500Z,17.29
2023-07-10T04:48:16.142Z,17.36
2023-07-10T04:51:21.837Z,17.44
2023-07-10T04:54:26.315Z,17.46
2023-07-10T04:57:30.813Z,17.50
2023-07-10T05:00:37.222Z,17.50
2023-07-10T05:03:41.745Z,17.43
2023-07-10T05:06:46.198Z,17.55
2023-07-10T05:09:50.910Z,17.64
2023-07-10T05:12:55.567Z,17.68
2023-07-10T05:16:02.845Z,17.70
2023-07-10T05:19:07.639Z,17.81
2023-07-10T05:22:12.123Z,17.85
2023-07-10T05:25:16.885Z,17.89
2023-07-10T05:28:21.378Z,18.07
2023-07-10T05:31:27.350Z,18.42
2023-07-10T05:34:31.909Z,18.69
2023-07-10T05:37:36.541Z,18.99
2023-07-10T05:40:43.934Z,19.27
2023-07-10T05:43:48.794Z,19.66
2023-07-10T05:46:57.326Z,19.77
2023-07-10T05:50:01.936Z,19.84
2023-07-10T05:53:06.462Z,20.05
2023-07-10T05:56:12.051Z,20.27
2023-07-10T05:59:17.547Z,20.47
2023-07-10T06:02:23.522Z,20.44
2023-07-10T06:05:27.996Z,20.61
2023-07-10T06:08:33.191Z,20.60
2023-07-10T06:11:38.212Z,20.67
2023-07-10T06:14:42.779Z,20.89
2023-07-10T06:17:48.998Z,21.06
2023-07-10T06:20:54.312Z,21.26
2023-07-10T06:23:58.830Z,21.39
2023-07-10T06:27:03.945Z,21.56
2023-07-10T06:30:10.208Z,21.32
2023-07-10T06:33:16.109Z,21.39
2023-07-10T06:36:20.663Z,21.54
2023-07-10T06:39:25.274Z,21.74
2023-07-10T06:42:29.729Z,21.76
2023-07-10T06:45:34.358Z,21.72
2023-07-10T06:48:40.759Z,21.88
2023-07-10T06:51:45.328Z,22.01
2023-07-10T06:54:50.057Z,21.84
2023-07-10T06:57:54.697Z,21.94
2023-07-10T07:01:00.468Z,21.77
2023-07-10T07:04:06.691Z,21.75
2023-07-10T07:07:11.646Z,21.93
2023-07-10T07:10:16.303Z,22.24
2023-07-10T07:13:22.638Z,22.36
2023-07-10T07:16:27.557Z,22.46
2023-07-10T07:19:33.585Z,22.45
2023-07-10T07:22:38.093Z,22.61
2023-07-10T07:25:43.698Z,22.53
2023-07-10T07:28:48.266Z,22.65
2023-07-10T07:31:52.778Z,22.37
2023-07-10T07:34:58.668Z,22.24
2023-07-10T07:38:03.216Z,22.24
2023-07-10T07:41:08.530Z,22.02
2023-07-10T07:44:13.012Z,22.20
2023-07-10T07:47:19.284Z,22.24
2023-07-10T07:50:25.278Z,22.40
2023-07-10T07:53:29.952Z,22.44
2023-07-10T07:56:34.585Z,22.56
2023-07-10T07:59:39.038Z,22.50
2023-07-10T08:02:43.615Z,22.47
2023-07-10T08:05:49.685Z,22.52
2023-07-10T08:08:54.211Z,22.52
2023-07-10T08:11:58.738Z,22.54
2023-07-10T08:15:04.402Z,22.65
2023-07-10T08:18:09.058Z,22.58
2023-07-10T08:21:18.756Z,22.65
2023-07-10T08:24:23.230Z,22.55
2023-07-10T08:27:28.182Z,22.69
2023-07-10T08:30:33.560Z,22.70
2023-07-10T08:33:38.102Z,22.62
2023-07-10T08:36:43.990Z,22.56
2023-07-10T08:39:48.886Z,22.52
2023-07-10T08:42:53.487Z,22.50
2023-07-10T08:46:05.890Z,22.48
2023-07-10T08:49:16.472Z,22.45
2023-07-10T08:52:31.026Z,22.31
2023-07-10T08:55:44.540Z,22.38
2023-07-10T08:58:49.076Z,22.42
2023-07-10T09:01:54.083Z,22.33
2023-07-10T09:04:59.079Z,22.29
2023-07-10T09:08:06.596Z,22.23
2023-07-10T09:11:13.915Z,22.30
2023-07-10T09:14:25.359Z,22.47
2023-07-10T09:17:38.914Z,22.33
2023-07-10T09:20:44.162Z,22.35
2023-07-10T09:23:51.233Z,22.50
2023-07-10T09:26:56.476Z,22.50
2023-07-10T09:30:01.603Z,22.46
2023-07-10T09:33:09.655Z,22.43
2023-07-10T09:36:16.363Z,22.53
2023-07-10T09:39:22.434Z,22.53
2023-07-10T09:42:34.093Z,22.41
2023-07-10T09:45:41.350Z,22.48
2023-07-10T09:48:48.406Z,22.50
2023-07-10T09:51:58.966Z,22.50
2023-07-10T09:55:13.396Z,22.58
2023-07-10T09:58:17.928Z,22.60
2023-07-10T10:01:25.118Z,22.67
2023-07-10T10:04:31.147Z,22.53
2023-07-10T10:07:39.444Z,22.46
2023-07-10T10:10:45.368Z,22.48
2023-07-10T10:13:57.681Z,22.66
2023-07-10T10:17:06.265Z,22.64
2023-07-10T10:20:17.835Z,22.71
2023-07-10T10:23:33.818Z,22.76
2023-07-10T10:26:59.468Z,22.62
2023-07-10T10:30:25.514Z,22.59
2023-07-10T10:33:33.058Z,22.67
2023-07-10T10:36:44.465Z,22.65
2023-07-10T10:39:55.730Z,22.71
2023-07-10T10:43:14.600Z,22.87
2023-07-10T10:46:29.240Z,22.93
2023-07-10T10:49:48.575Z,22.86
2023-07-10T10:53:01.316Z,22.88
2023-07-10T10:56:16.359Z,22.94
2023-07-10T10:59:32.046Z,23.09
2023-07-10T11:02:45.700Z,22.99
2023-07-10T11:05:53.986Z,22.89
2023-07-10T11:09:00.877Z,22.91
2023-07-10T11:12:07.058Z,22.94
2023-07-10T11:15:19.703Z,23.08
2023-07-10T11:18:24.336Z,23.16
2023-07-10T11:21:28.934Z,23.10
2023-07-10T11:24:36.543Z,23.20
2023-07-10T11:27:45.535Z,23.14
2023-07-10T11:31:14.196Z,23.24
2023-07-10T11:34:41.939Z,23.35
2023-07-10T11:38:18.035Z,23.39
2023-07-10T11:41:28.913Z,23.30
2023-07-10T11:44:42.020Z,23.38
2023-07-10T11:47:48.229Z,23.15
2023-07-10T11:50:52.717Z,23.32
2023-07-10T11:54:45.923Z,23.28
2023-07-10T11:58:31.484Z,23.33
2023-07-10T12:01:37.690Z,23.44
2023-07-10T12:04:44.409Z,23.48
2023-07-10T12:08:03.971Z,23.40
2023-07-10T12:11:31.393Z,23.49
2023-07-10T12:14:36.577Z,23.41
2023-07-10T12:17:43.356Z,23.48
2023-07-10T12:20:51.231Z,23.41
2023-07-10T12:23:56.087Z,23.56
2023-07-10T12:27:31.759Z,23.41
2023-07-10T12:30:28.812Z,23.45
2023-07-10T12:33:40.337Z,23.48
2023-07-10T12:36:45.030Z,23.66
2023-07-10T12:39:52.327Z,23.75
2023-07-10T12:42:57.461Z,23.75
2023-07-10T12:46:03.410Z,23.89
2023-07-10T12:49:15.018Z,23.86
2023-07-10T12:52:19.658Z,23.81
2023-07-10T12:55:25.649Z,23.78
2023-07-10T12:58:31.346Z,23.81
2023-07-10T13:01:36.165Z,23.97
2023-07-10T13:04:47.593Z,23.99
2023-07-10T13:07:54.632Z,24.02
2023-07-10T13:11:00.093Z,24.21
2023-07-10T13:14:14.767Z,24.12
2023-07-10T13:17:23.469Z,24.18
2023-07-10T13:20:31.116Z,24.25
2023-07-10T13:23:35.656Z,24.30
2023-07-10T13:26:40.230Z,24.17
2023-07-10T13:29:44.825Z,24.24
2023-07-10T13:32:49.872Z,24.27
2023-07-10T13:35:57.969Z,24.28
2023-07-10T13:39:02.655Z,24.24
2023-07-10T13:42:11.423Z,24.52
2023-07-10T13:45:16.181Z,25.97
2023-07-10T13:48:20.682Z,25.07
2023-07-10T13:51:28.929Z,25.20
2023-07-10T13:54:33.553Z,26.94
2023-07-10T13:57:38.298Z,26.95
2023-07-10T14:00:42.884Z,27.34
2023-07-10T14:03:48.212Z,26.38
2023-07-10T14:06:54.198Z,25.59
2023-07-10T14:10:00.069Z,27.00
2023-07-10T14:13:04.566Z,26.46
2023-07-10T14:16:16.441Z,25.44
2023-07-10T14:19:22.435Z,25.17
2023-07-10T14:22:28.529Z,24.98
2023-07-10T14:25:32.978Z,24.92
2023-07-10T14:28:37.498Z,24.75
2023-07-10T14:31:42.192Z,24.75
2023-07-10T14:34:47.434Z,24.91
2023-07-10T14:37:53.325Z,24.57
2023-07-10T14:40:58.893Z,24.57
2023-07-10T14:44:04.267Z,25.01
2023-07-10T14:47:26.853Z,24.89
2023-07-10T14:50:31.399Z,26.17
2023-07-10T14:53:37.301Z,26.78
2023-07-10T14:56:42.309Z,26.05
2023-07-10T14:59:46.868Z,25.55
2023-07-10T15:02:53.177Z,25.54
2023-07-10T15:05:58.457Z,25.08
2023-07-10T15:09:04.611Z,24.80
2023-07-10T15:12:12.720Z,24.72
2023-07-10T15:15:17.792Z,24.42
2023-07-10T15:18:25.505Z,24.46
2023-07-10T15:21:30.063Z,24.24
2023-07-10T15:24:36.549Z,24.42
2023-07-10T15:27:41.046Z,25.55
2023-07-10T15:30:45.616Z,25.99
2023-07-10T15:33:50.159Z,26.16
2023-07-10T15:36:56.160Z,25.28
2023-07-10T15:40:02.032Z,24.95
2023-07-10T15:43:07.699Z,24.68
2023-07-10T15:46:12.331Z,24.30
2023-07-10T15:49:22.504Z,24.32
2023-07-10T15:52:30.746Z,24.03
2023-07-10T15:55:36.760Z,23.80
2023-07-10T15:58:41.948Z,23.96
2023-07-10T16:01:49.784Z,24.09
2023-07-10T16:04:54.477Z,23.98
2023-07-10T16:08:00.034Z,23.70
2023-07-10T16:11:12.456Z,23.99
2023-07-10T16:14:19.120Z,23.82
2023-07-10T16:17:23.671Z,23.58
2023-07-10T16:20:29.502Z,23.47
2023-07-10T16:23:35.910Z,23.45
2023-07-10T16:26:41.857Z,23.40
2023-07-10T16:29:46.330Z,23.69
2023-07-10T16:32:52.278Z,23.92
2023-07-10T16:35:57.425Z,23.81
2023-07-10T16:39:02.056Z,23.66
2023-07-10T16:42:14.314Z,23.68
2023-07-10T16:45:21.007Z,23.68
2023-07-10T16:48:27.376Z,23.68
2023-07-10T16:51:32.016Z,23.48
2023-07-10T16:54:37.558Z,23.25
2023-07-10T16:57:43.639Z,23.14
2023-07-10T17:00:48.838Z,23.01
2023-07-10T17:03:54.819Z,22.92
2023-07-10T17:07:02.177Z,22.65
2023-07-10T17:10:07.367Z,22.69
2023-07-10T17:13:16.219Z,22.59
2023-07-10T17:16:20.710Z,22.38
2023-07-10T17:19:25.272Z,22.40
2023-07-10T17:22:32.543Z,22.24
2023-07-10T17:25:37.092Z,22.30
2023-07-10T17:28:44.253Z,22.34
2023-07-10T17:31:48.887Z,22.27
2023-07-10T17:34:53.590Z,22.30
2023-07-10T17:37:58.107Z,22.15
2023-07-10T17:41:03.008Z,22.08
2023-07-10T17:44:18.474Z,22.05
2023-07-10T17:47:23.027Z,21.97
2023-07-10T17:50:27.626Z,22.03
2023-07-10T17:53:32.201Z,21.80
2023-07-10T17:56:36.707Z,21.48
2023-07-10T17:59:42.636Z,21.57
2023-07-10T18:02:48.333Z,21.54
2023-07-10T18:05:53.226Z,21.46
2023-07-10T18:08:57.827Z,21.57
2023-07-10T18:12:02.523Z,21.60
2023-07-10T18:15:16.503Z,21.48
2023-07-10T18:18:20.979Z,21.35
2023-07-10T18:21:28.232Z,21.15
2023-07-10T18:24:32.781Z,21.19
2023-07-10T18:27:37.340Z,21.04
2023-07-10T18:30:43.845Z,21.01
2023-07-10T18:33:48.633Z,21.09
2023-07-10T18:36:53.482Z,21.09
2023-07-10T18:39:58.137Z,21.07
2023-07-10T18:43:02.678Z,20.88
2023-07-10T18:46:09.719Z,20.77
2023-07-10T18:49:19.796Z,20.80
2023-07-10T18:52:29.336Z,20.69
2023-07-10T18:55:33.826Z,20.63
2023-07-10T18:58:39.126Z,20.50
2023-07-10T19:01:45.312Z,20.40
2023-07-10T19:04:52.428Z,20.40
2023-07-10T19:07:57.156Z,20.33
2023-07-10T19:11:01.885Z,20.29
2023-07-10T19:14:13.984Z,20.29
2023-07-10T19:17:21.739Z,20.29
2023-07-10T19:20:26.246Z,20.20
2023-07-10T19:23:32.559Z,20.14
2023-07-10T19:26:37.512Z,19.94
2023-07-10T19:29:42.044Z,19.95
2023-07-10T19:32:48.037Z,19.91
2023-07-10T19:35:53.255Z,19.77
2023-07-10T19:38:59.769Z,19.72
2023-07-10T19:42:06.136Z,19.69
2023-07-10T19:45:11.877Z,19.53
2023-07-10T19:48:19.081Z,19.49
2023-07-10T19:51:23.661Z,19.48
2023-07-10T19:54:28.334Z,19.21
2023-07-10T19:57:35.182Z,19.35
2023-07-10T20:00:39.803Z,19.31
2023-07-10T20:03:46.037Z,19.16
2023-07-10T20:06:51.280Z,19.25
2023-07-10T20:09:55.760Z,19.09
2023-07-10T20:13:00.242Z,19.09
2023-07-10T20:16:06.592Z,19.00
2023-07-10T20:19:17.921Z,18.97
2023-07-10T20:22:22.389Z,18.89
2023-07-10T20:25:26.982Z,18.81
2023-07-10T20:28:35.288Z,18.65
2023-07-10T20:31:39.840Z,18.67
2023-07-10T20:34:50.047Z,18.73
2023-07-10T20:37:55.999Z,18.51
2023-07-10T20:41:00.877Z,18.45
2023-07-10T20:44:12.156Z,18.49
2023-07-10T20:47:18.185Z,18.47
2023-07-10T20:50:24.866Z,18.56
2023-07-10T20:53:32.383Z,18.57
2023-07-10T20:56:37.243Z,18.50
2023-07-10T20:59:41.742Z,18.46
2023-07-10T21:02:46.540Z,18.47
2023-07-10T21:05:56.061Z,18.50
2023-07-10T21:09:03.138Z,18.27
2023-07-10T21:12:10.198Z,18.19
2023-07-10T21:15:15.895Z,18.18
2023-07-10T21:18:23.844Z,18.31
2023-07-10T21:21:29.868Z,18.23
2023-07-10T21:24:34.924Z,18.29
2023-07-10T21:27:39.738Z,18.21
2023-07-10T21:30:46.036Z,18.23
2023-07-10T21:33:52.455Z,18.18
2023-07-10T21:36:58.399Z,18.16
2023-07-10T21:40:02.917Z,18.01
2023-07-10T21:43:07.789Z,18.10
2023-07-10T21:46:16.194Z,18.06
2023-07-10T21:49:21.493Z,17.88
2023-07-10T21:52:27.381Z,17.88
2023-07-10T21:55:32.040Z,17.97
2023-07-10T21:58:38.698Z,17.96
2023-07-10T22:01:43.258Z,17.91
2023-07-10T22:04:47.771Z,17.70
2023-07-10T22:07:53.835Z,17.65
2023-07-10T22:10:59.858Z,17.75
2023-07-10T22:14:04.368Z,17.73
2023-07-10T22:17:19.216Z,17.62
2023-07-10T22:20:23.825Z,17.66
2023-07-10T22:23:31.690Z,17.73
2023-07-10T22:26:36.557Z,17.73
2023-07-10T22:29:41.863Z,17.70
2023-07-10T22:32:46.561Z,17.70
2023-07-10T22:35:51.300Z,17.67
2023-07-10T22:38:57.138Z,17.64
2023-07-10T22:42:02.319Z,17.59
2023-07-10T22:45:07.935Z,17.53
2023-07-10T22:48:13.735Z,17.58
2023-07-10T22:51:20.856Z,17.55
2023-07-10T22:54:26.707Z,17.40
2023-07-10T22:57:31.430Z,17.48
2023-07-10T23:00:36.505Z,17.38
2023-07-10T23:03:42.375Z,17.34
2023-07-10T23:06:48.149Z,17.27
2023-07-10T23:09:54.037Z,17.21
2023-07-10T23:12:58.619Z,17.22
2023-07-10T23:16:03.513Z,17.08
2023-07-10T23:19:08.091Z,17.05
2023-07-10T23:22:12.558Z,17.04
2023-07-10T23:25:18.650Z,17.01
2023-07-10T23:28:23.353Z,16.85
2023-07-10T23:31:29.534Z,16.84
2023-07-10T23:34:34.144Z,16.86
2023-07-10T23:37:38.695Z,16.87
2023-07-10T23:40:44.857Z,16.85
2023-07-10T23:43:49.331Z,16.89
2023-07-10T23:46:53.856Z,16.89
2023-07-10T23:49:58.416Z,16.91
2023-07-10T23:53:03.397Z,16.73
2023-07-10T23:56:10.323Z,16.77
2023-07-10T23:59:15.168Z,16.68
